sensor_id;sensor_type;location;lat;lon;timestamp;P1;durP1;ratioP1;P2;durP2;ratioP2
74042;SDS011;62384;53.600;10.040;2022-09-01T00:00:18;0.93;;;0.68;;
74042;SDS011;62384;53.600;10.040;2022-09-01T00:02:47;1.83;;;0.70;;
74042;SDS011;62384;53.600;10.040;2022-09-01T00:05:15;0.73;;;0.50;;
74042;SDS011;62384;53.600;10.040;2022-09-01T00:07:40;0.88;;;0.60;;
74042;SDS011;62384;53.600;10.040;2022-09-01T00:10:06;2.10;;;0.60;;
74042;SDS011;62384;53.600;10.040;2022-09-01T00:12:32;3.40;;;0.70;;
74042;SDS011;62384;53.600;10.040;2022-09-01T00:14:58;1.02;;;0.70;;
74042;SDS011;62384;53.600;10.040;2022-09-01T00:17:23;1.90;;;0.65;;
74042;SDS011;62384;53.600;10.040;2022-09-01T00:19:49;1.95;;;0.60;;
74042;SDS011;62384;53.600;10.040;2022-09-01T00:22:14;0.98;;;0.60;;
74042;SDS011;62384;53.600;10.040;2022-09-01T00:24:40;0.70;;;0.70;;
74042;SDS011;62384;53.600;10.040;2022-09-01T00:27:05;2.15;;;0.70;;
74042;SDS011;62384;53.600;10.040;2022-09-01T00:29:31;1.10;;;0.60;;
74042;SDS011;62384;53.600;10.040;2022-09-01T00:31:56;1.48;;;0.73;;
74042;SDS011;62384;53.600;10.040;2022-09-01T00:34:21;1.70;;;0.80;;
74042;SDS011;62384;53.600;10.040;2022-09-01T00:36:47;1.77;;;1.10;;
74042;SDS011;62384;53.600;10.040;2022-09-01T00:39:13;0.82;;;0.60;;
74042;SDS011;62384;53.600;10.040;2022-09-01T00:41:39;1.05;;;0.70;;
74042;SDS011;62384;53.600;10.040;2022-09-01T00:44:09;0.95;;;0.60;;
74042;SDS011;62384;53.600;10.040;2022-09-01T00:46:39;1.17;;;0.50;;
74042;SDS011;62384;53.600;10.040;2022-09-01T00:52:06;1.10;;;0.52;;
74042;SDS011;62384;53.600;10.040;2022-09-01T00:54:35;3.13;;;0.70;;
74042;SDS011;62384;53.600;10.040;2022-09-01T00:57:04;1.98;;;0.80;;
74042;SDS011;62384;53.600;10.040;2022-09-01T00:59:30;0.85;;;0.65;;
74042;SDS011;62384;53.600;10.040;2022-09-01T01:01:56;2.40;;;0.85;;
74042;SDS011;62384;53.600;10.040;2022-09-01T01:04:22;2.22;;;0.77;;
74042;SDS011;62384;53.600;10.040;2022-09-01T01:06:50;1.42;;;0.80;;
74042;SDS011;62384;53.600;10.040;2022-09-01T01:09:26;1.55;;;0.60;;
74042;SDS011;62384;53.600;10.040;2022-09-01T01:11:55;1.33;;;0.80;;
74042;SDS011;62384;53.600;10.040;2022-09-01T01:14:23;1.17;;;0.75;;
74042;SDS011;62384;53.600;10.040;2022-09-01T01:16:52;2.88;;;0.50;;
74042;SDS011;62384;53.600;10.040;2022-09-01T01:22:24;1.38;;;0.50;;
74042;SDS011;62384;53.600;10.040;2022-09-01T01:25:27;0.88;;;0.50;;
74042;SDS011;62384;53.600;10.040;2022-09-01T01:28:08;0.90;;;0.70;;
74042;SDS011;62384;53.600;10.040;2022-09-01T01:30:45;1.33;;;0.70;;
74042;SDS011;62384;53.600;10.040;2022-09-01T01:33:20;0.43;;;0.40;;
74042;SDS011;62384;53.600;10.040;2022-09-01T01:35:48;1.10;;;0.47;;
74042;SDS011;62384;53.600;10.040;2022-09-01T01:38:15;0.98;;;0.80;;
74042;SDS011;62384;53.600;10.040;2022-09-01T01:40:41;1.40;;;0.60;;
74042;SDS011;62384;53.600;10.040;2022-09-01T01:43:07;1.35;;;0.80;;
74042;SDS011;62384;53.600;10.040;2022-09-01T01:45:33;2.72;;;0.95;;
74042;SDS011;62384;53.600;10.040;2022-09-01T01:47:58;0.95;;;0.60;;
74042;SDS011;62384;53.600;10.040;2022-09-01T01:50:26;0.90;;;0.60;;
74042;SDS011;62384;53.600;10.040;2022-09-01T01:52:57;0.70;;;0.68;;
74042;SDS011;62384;53.600;10.040;2022-09-01T01:55:24;2.35;;;0.73;;
74042;SDS011;62384;53.600;10.040;2022-09-01T01:57:52;0.75;;;0.60;;
74042;SDS011;62384;53.600;10.040;2022-09-01T02:00:20;1.25;;;0.63;;
74042;SDS011;62384;53.600;10.040;2022-09-01T02:02:48;2.00;;;0.90;;
74042;SDS011;62384;53.600;10.040;2022-09-01T02:05:21;2.50;;;0.80;;
74042;SDS011;62384;53.600;10.040;2022-09-01T02:07:49;1.30;;;0.80;;
74042;SDS011;62384;53.600;10.040;2022-09-01T02:10:24;1.77;;;0.60;;
74042;SDS011;62384;53.600;10.040;2022-09-01T02:12:51;0.90;;;0.70;;
74042;SDS011;62384;53.600;10.040;2022-09-01T02:15:18;1.45;;;0.80;;
74042;SDS011;62384;53.600;10.040;2022-09-01T02:17:44;0.98;;;0.88;;
74042;SDS011;62384;53.600;10.040;2022-09-01T02:20:10;2.15;;;0.70;;
74042;SDS011;62384;53.600;10.040;2022-09-01T02:22:35;3.28;;;0.73;;
74042;SDS011;62384;53.600;10.040;2022-09-01T02:25:04;0.77;;;0.60;;
74042;SDS011;62384;53.600;10.040;2022-09-01T02:27:30;2.05;;;0.98;;
74042;SDS011;62384;53.600;10.040;2022-09-01T02:30:01;1.00;;;0.85;;
74042;SDS011;62384;53.600;10.040;2022-09-01T02:32:28;1.58;;;1.10;;
74042;SDS011;62384;53.600;10.040;2022-09-01T02:34:53;1.05;;;0.80;;
74042;SDS011;62384;53.600;10.040;2022-09-01T02:37:25;1.15;;;0.70;;
74042;SDS011;62384;53.600;10.040;2022-09-01T02:39:51;1.13;;;0.70;;
74042;SDS011;62384;53.600;10.040;2022-09-01T02:42:26;0.70;;;0.70;;
74042;SDS011;62384;53.600;10.040;2022-09-01T02:44:54;1.55;;;0.70;;
74042;SDS011;62384;53.600;10.040;2022-09-01T02:47:21;3.35;;;0.98;;
74042;SDS011;62384;53.600;10.040;2022-09-01T02:49:47;1.60;;;0.73;;
74042;SDS011;62384;53.600;10.040;2022-09-01T02:52:15;1.40;;;0.80;;
74042;SDS011;62384;53.600;10.040;2022-09-01T02:54:42;0.75;;;0.70;;
74042;SDS011;62384;53.600;10.040;2022-09-01T02:57:10;1.98;;;1.15;;
74042;SDS011;62384;53.600;10.040;2022-09-01T02:59:36;0.93;;;0.70;;
74042;SDS011;62384;53.600;10.040;2022-09-01T03:02:01;2.75;;;0.90;;
74042;SDS011;62384;53.600;10.040;2022-09-01T03:04:27;1.88;;;1.08;;
74042;SDS011;62384;53.600;10.040;2022-09-01T03:09:24;1.13;;;0.75;;
74042;SDS011;62384;53.600;10.040;2022-09-01T03:11:50;2.10;;;0.93;;
74042;SDS011;62384;53.600;10.040;2022-09-01T03:14:17;2.25;;;0.70;;
74042;SDS011;62384;53.600;10.040;2022-09-01T03:16:43;1.88;;;1.10;;
74042;SDS011;62384;53.600;10.040;2022-09-01T03:19:09;0.85;;;0.82;;
74042;SDS011;62384;53.600;10.040;2022-09-01T03:21:37;3.72;;;1.40;;
74042;SDS011;62384;53.600;10.040;2022-09-01T03:24:05;5.07;;;1.00;;
74042;SDS011;62384;53.600;10.040;2022-09-01T03:26:33;1.25;;;0.90;;
74042;SDS011;62384;53.600;10.040;2022-09-01T03:28:58;1.27;;;0.90;;
74042;SDS011;62384;53.600;10.040;2022-09-01T03:31:24;1.10;;;0.80;;
74042;SDS011;62384;53.600;10.040;2022-09-01T03:33:51;1.92;;;0.88;;
74042;SDS011;62384;53.600;10.040;2022-09-01T03:36:18;1.63;;;0.98;;
74042;SDS011;62384;53.600;10.040;2022-09-01T03:38:45;1.63;;;0.80;;
74042;SDS011;62384;53.600;10.040;2022-09-01T03:41:13;1.48;;;0.90;;
74042;SDS011;62384;53.600;10.040;2022-09-01T03:43:41;1.60;;;1.15;;
74042;SDS011;62384;53.600;10.040;2022-09-01T03:46:07;1.27;;;0.75;;
74042;SDS011;62384;53.600;10.040;2022-09-01T03:48:34;2.33;;;1.02;;
74042;SDS011;62384;53.600;10.040;2022-09-01T03:51:00;1.90;;;0.90;;
74042;SDS011;62384;53.600;10.040;2022-09-01T03:53:27;1.73;;;0.95;;
74042;SDS011;62384;53.600;10.040;2022-09-01T03:55:55;2.08;;;1.30;;
74042;SDS011;62384;53.600;10.040;2022-09-01T03:58:21;3.15;;;0.88;;
74042;SDS011;62384;53.600;10.040;2022-09-01T04:00:52;2.20;;;1.40;;
74042;SDS011;62384;53.600;10.040;2022-09-01T04:03:19;2.97;;;1.00;;
74042;SDS011;62384;53.600;10.040;2022-09-01T04:05:48;3.00;;;1.20;;
74042;SDS011;62384;53.600;10.040;2022-09-01T04:08:15;6.93;;;1.20;;
74042;SDS011;62384;53.600;10.040;2022-09-01T04:10:46;1.92;;;1.20;;
74042;SDS011;62384;53.600;10.040;2022-09-01T04:13:20;9.30;;;1.48;;
74042;SDS011;62384;53.600;10.040;2022-09-01T04:15:51;3.67;;;1.20;;
74042;SDS011;62384;53.600;10.040;2022-09-01T04:18:16;1.48;;;1.20;;
74042;SDS011;62384;53.600;10.040;2022-09-01T04:20:54;2.38;;;1.10;;
74042;SDS011;62384;53.600;10.040;2022-09-01T04:23:25;3.88;;;1.27;;
74042;SDS011;62384;53.600;10.040;2022-09-01T04:25:58;1.67;;;1.10;;
74042;SDS011;62384;53.600;10.040;2022-09-01T04:28:33;2.58;;;1.48;;
74042;SDS011;62384;53.600;10.040;2022-09-01T04:31:05;1.80;;;1.17;;
74042;SDS011;62384;53.600;10.040;2022-09-01T04:33:33;4.22;;;1.17;;
74042;SDS011;62384;53.600;10.040;2022-09-01T04:36:14;1.92;;;1.27;;
74042;SDS011;62384;53.600;10.040;2022-09-01T04:38:47;2.13;;;0.80;;
74042;SDS011;62384;53.600;10.040;2022-09-01T04:41:21;2.13;;;1.30;;
74042;SDS011;62384;53.600;10.040;2022-09-01T04:43:50;2.78;;;1.20;;
74042;SDS011;62384;53.600;10.040;2022-09-01T04:46:17;3.72;;;1.45;;
74042;SDS011;62384;53.600;10.040;2022-09-01T04:48:45;2.55;;;1.30;;
74042;SDS011;62384;53.600;10.040;2022-09-01T04:51:11;1.70;;;1.30;;
74042;SDS011;62384;53.600;10.040;2022-09-01T04:53:37;4.45;;;1.65;;
74042;SDS011;62384;53.600;10.040;2022-09-01T04:56:05;2.28;;;1.50;;
74042;SDS011;62384;53.600;10.040;2022-09-01T04:58:31;1.52;;;1.35;;
74042;SDS011;62384;53.600;10.040;2022-09-01T05:00:58;4.35;;;1.65;;
74042;SDS011;62384;53.600;10.040;2022-09-01T05:03:25;2.22;;;1.40;;
74042;SDS011;62384;53.600;10.040;2022-09-01T05:05:50;4.05;;;1.60;;
74042;SDS011;62384;53.600;10.040;2022-09-01T05:08:19;1.58;;;1.42;;
74042;SDS011;62384;53.600;10.040;2022-09-01T05:10:47;4.32;;;1.30;;
74042;SDS011;62384;53.600;10.040;2022-09-01T05:13:16;1.92;;;1.40;;
74042;SDS011;62384;53.600;10.040;2022-09-01T05:15:43;2.20;;;1.45;;
74042;SDS011;62384;53.600;10.040;2022-09-01T05:18:15;2.00;;;1.30;;
74042;SDS011;62384;53.600;10.040;2022-09-01T05:20:47;3.13;;;1.42;;
74042;SDS011;62384;53.600;10.040;2022-09-01T05:23:14;1.95;;;1.30;;
74042;SDS011;62384;53.600;10.040;2022-09-01T05:25:43;2.53;;;1.60;;
74042;SDS011;62384;53.600;10.040;2022-09-01T05:28:11;2.45;;;1.45;;
74042;SDS011;62384;53.600;10.040;2022-09-01T05:30:37;2.03;;;1.50;;
74042;SDS011;62384;53.600;10.040;2022-09-01T05:33:05;3.25;;;1.73;;
74042;SDS011;62384;53.600;10.040;2022-09-01T05:35:41;3.05;;;1.30;;
74042;SDS011;62384;53.600;10.040;2022-09-01T05:38:09;3.08;;;1.48;;
74042;SDS011;62384;53.600;10.040;2022-09-01T05:40:40;5.03;;;1.40;;
74042;SDS011;62384;53.600;10.040;2022-09-01T05:43:09;4.20;;;1.30;;
74042;SDS011;62384;53.600;10.040;2022-09-01T05:45:36;2.78;;;1.58;;
74042;SDS011;62384;53.600;10.040;2022-09-01T05:48:07;4.60;;;1.50;;
74042;SDS011;62384;53.600;10.040;2022-09-01T05:50:33;2.28;;;1.42;;
74042;SDS011;62384;53.600;10.040;2022-09-01T05:52:59;2.42;;;1.55;;
74042;SDS011;62384;53.600;10.040;2022-09-01T05:55:24;1.17;;;1.05;;
74042;SDS011;62384;53.600;10.040;2022-09-01T05:57:51;2.15;;;1.30;;
74042;SDS011;62384;53.600;10.040;2022-09-01T06:00:18;7.88;;;1.58;;
74042;SDS011;62384;53.600;10.040;2022-09-01T06:02:44;2.08;;;1.33;;
74042;SDS011;62384;53.600;10.040;2022-09-01T06:05:09;3.83;;;1.08;;
74042;SDS011;62384;53.600;10.040;2022-09-01T06:07:39;1.58;;;1.08;;
74042;SDS011;62384;53.600;10.040;2022-09-01T06:10:07;2.05;;;1.23;;
74042;SDS011;62384;53.600;10.040;2022-09-01T06:12:33;1.50;;;0.90;;
74042;SDS011;62384;53.600;10.040;2022-09-01T06:14:58;5.85;;;1.10;;
74042;SDS011;62384;53.600;10.040;2022-09-01T06:17:25;1.67;;;1.05;;
74042;SDS011;62384;53.600;10.040;2022-09-01T06:19:54;4.93;;;1.00;;
74042;SDS011;62384;53.600;10.040;2022-09-01T06:22:20;2.38;;;1.20;;
74042;SDS011;62384;53.600;10.040;2022-09-01T06:24:47;1.10;;;0.98;;
74042;SDS011;62384;53.600;10.040;2022-09-01T06:27:15;1.20;;;0.90;;
74042;SDS011;62384;53.600;10.040;2022-09-01T06:29:45;1.63;;;0.93;;
74042;SDS011;62384;53.600;10.040;2022-09-01T06:32:15;2.72;;;0.80;;
74042;SDS011;62384;53.600;10.040;2022-09-01T06:34:44;2.30;;;0.63;;
74042;SDS011;62384;53.600;10.040;2022-09-01T06:37:14;2.35;;;1.60;;
74042;SDS011;62384;53.600;10.040;2022-09-01T06:39:39;1.15;;;0.82;;
74042;SDS011;62384;53.600;10.040;2022-09-01T06:42:05;2.50;;;0.88;;
74042;SDS011;62384;53.600;10.040;2022-09-01T06:44:33;2.90;;;0.85;;
74042;SDS011;62384;53.600;10.040;2022-09-01T06:46:59;2.28;;;0.95;;
74042;SDS011;62384;53.600;10.040;2022-09-01T06:49:25;2.38;;;0.90;;
74042;SDS011;62384;53.600;10.040;2022-09-01T06:51:56;3.38;;;0.77;;
74042;SDS011;62384;53.600;10.040;2022-09-01T06:54:22;2.75;;;0.80;;
74042;SDS011;62384;53.600;10.040;2022-09-01T06:56:49;3.70;;;0.70;;
74042;SDS011;62384;53.600;10.040;2022-09-01T06:59:15;0.60;;;0.50;;
74042;SDS011;62384;53.600;10.040;2022-09-01T07:01:41;1.13;;;0.52;;
74042;SDS011;62384;53.600;10.040;2022-09-01T07:04:07;1.00;;;0.90;;
74042;SDS011;62384;53.600;10.040;2022-09-01T07:06:33;1.52;;;0.73;;
74042;SDS011;62384;53.600;10.040;2022-09-01T07:09:01;2.50;;;0.80;;
74042;SDS011;62384;53.600;10.040;2022-09-01T07:11:29;0.82;;;0.50;;
74042;SDS011;62384;53.600;10.040;2022-09-01T07:13:58;1.25;;;0.40;;
74042;SDS011;62384;53.600;10.040;2022-09-01T07:16:26;0.55;;;0.52;;
74042;SDS011;62384;53.600;10.040;2022-09-01T07:18:54;2.45;;;0.40;;
74042;SDS011;62384;53.600;10.040;2022-09-01T07:21:22;2.60;;;0.50;;
74042;SDS011;62384;53.600;10.040;2022-09-01T07:23:49;0.90;;;0.60;;
74042;SDS011;62384;53.600;10.040;2022-09-01T07:26:15;2.92;;;0.70;;
74042;SDS011;62384;53.600;10.040;2022-09-01T07:28:46;2.67;;;0.40;;
74042;SDS011;62384;53.600;10.040;2022-09-01T07:33:44;0.63;;;0.40;;
74042;SDS011;62384;53.600;10.040;2022-09-01T07:36:12;1.48;;;0.35;;
74042;SDS011;62384;53.600;10.040;2022-09-01T07:38:38;0.63;;;0.30;;
74042;SDS011;62384;53.600;10.040;2022-09-01T07:41:04;3.13;;;0.55;;
74042;SDS011;62384;53.600;10.040;2022-09-01T07:43:29;0.68;;;0.28;;
74042;SDS011;62384;53.600;10.040;2022-09-01T07:45:57;2.40;;;1.13;;
74042;SDS011;62384;53.600;10.040;2022-09-01T07:48:23;0.65;;;0.40;;
74042;SDS011;62384;53.600;10.040;2022-09-01T07:50:52;2.45;;;0.30;;
74042;SDS011;62384;53.600;10.040;2022-09-01T07:53:22;1.67;;;0.50;;
74042;SDS011;62384;53.600;10.040;2022-09-01T07:55:49;0.20;;;0.20;;
74042;SDS011;62384;53.600;10.040;2022-09-01T07:58:16;1.48;;;0.20;;
74042;SDS011;62384;53.600;10.040;2022-09-01T08:00:43;0.10;;;0.10;;
74042;SDS011;62384;53.600;10.040;2022-09-01T08:03:12;0.20;;;0.20;;
74042;SDS011;62384;53.600;10.040;2022-09-01T08:05:37;1.25;;;0.30;;
74042;SDS011;62384;53.600;10.040;2022-09-01T08:08:03;0.47;;;0.20;;
74042;SDS011;62384;53.600;10.040;2022-09-01T08:10:29;0.40;;;0.17;;
74042;SDS011;62384;53.600;10.040;2022-09-01T08:12:55;0.38;;;0.30;;
74042;SDS011;62384;53.600;10.040;2022-09-01T08:15:20;0.55;;;0.20;;
74042;SDS011;62384;53.600;10.040;2022-09-01T08:17:46;0.40;;;0.20;;
74042;SDS011;62384;53.600;10.040;2022-09-01T08:20:12;0.47;;;0.40;;
74042;SDS011;62384;53.600;10.040;2022-09-01T08:22:38;1.83;;;0.20;;
74042;SDS011;62384;53.600;10.040;2022-09-01T08:25:05;4.28;;;0.30;;
74042;SDS011;62384;53.600;10.040;2022-09-01T08:27:34;2.47;;;0.13;;
74042;SDS011;62384;53.600;10.040;2022-09-01T08:30:03;1.40;;;0.10;;
74042;SDS011;62384;53.600;10.040;2022-09-01T08:32:30;0.55;;;0.30;;
74042;SDS011;62384;53.600;10.040;2022-09-01T08:34:56;0.80;;;0.30;;
74042;SDS011;62384;53.600;10.040;2022-09-01T08:37:21;0.32;;;0.17;;
74042;SDS011;62384;53.600;10.040;2022-09-01T08:39:47;0.30;;;0.20;;
74042;SDS011;62384;53.600;10.040;2022-09-01T08:42:20;0.40;;;0.10;;
74042;SDS011;62384;53.600;10.040;2022-09-01T08:56:53;3.70;;;0.20;;
74042;SDS011;62384;53.600;10.040;2022-09-01T08:59:23;1.08;;;0.40;;
74042;SDS011;62384;53.600;10.040;2022-09-01T09:01:53;0.93;;;0.20;;
74042;SDS011;62384;53.600;10.040;2022-09-01T09:10:20;0.20;;;0.20;;
74042;SDS011;62384;53.600;10.040;2022-09-01T09:16:01;0.73;;;0.20;;
74042;SDS011;62384;53.600;10.040;2022-09-01T09:21:17;0.30;;;0.20;;
74042;SDS011;62384;53.600;10.040;2022-09-01T09:23:46;1.02;;;0.20;;
74042;SDS011;62384;53.600;10.040;2022-09-01T09:26:14;0.30;;;0.20;;
74042;SDS011;62384;53.600;10.040;2022-09-01T09:28:39;0.40;;;0.30;;
74042;SDS011;62384;53.600;10.040;2022-09-01T09:33:53;1.33;;;0.30;;
74042;SDS011;62384;53.600;10.040;2022-09-01T09:36:23;3.10;;;0.20;;
74042;SDS011;62384;53.600;10.040;2022-09-01T09:39:05;4.25;;;0.57;;
74042;SDS011;62384;53.600;10.040;2022-09-01T09:41:34;1.65;;;0.22;;
74042;SDS011;62384;53.600;10.040;2022-09-01T09:46:36;0.20;;;0.20;;
74042;SDS011;62384;53.600;10.040;2022-09-01T09:51:54;0.82;;;0.20;;
74042;SDS011;62384;53.600;10.040;2022-09-01T09:54:26;0.35;;;0.22;;
74042;SDS011;62384;53.600;10.040;2022-09-01T09:57:12;0.95;;;0.20;;
74042;SDS011;62384;53.600;10.040;2022-09-01T09:59:48;0.73;;;0.15;;
74042;SDS011;62384;53.600;10.040;2022-09-01T10:02:42;0.60;;;0.30;;
74042;SDS011;62384;53.600;10.040;2022-09-01T10:08:03;0.32;;;0.20;;
74042;SDS011;62384;53.600;10.040;2022-09-01T10:13:05;6.65;;;1.00;;
74042;SDS011;62384;53.600;10.040;2022-09-01T10:15:40;8.13;;;0.57;;
74042;SDS011;62384;53.600;10.040;2022-09-01T10:18:14;1.38;;;0.32;;
74042;SDS011;62384;53.600;10.040;2022-09-01T10:20:44;1.05;;;0.30;;
74042;SDS011;62384;53.600;10.040;2022-09-01T10:23:17;18.90;;;1.65;;
74042;SDS011;62384;53.600;10.040;2022-09-01T10:25:42;1.23;;;0.20;;
74042;SDS011;62384;53.600;10.040;2022-09-01T10:28:16;3.45;;;1.23;;
74042;SDS011;62384;53.600;10.040;2022-09-01T10:30:48;1.27;;;0.17;;
74042;SDS011;62384;53.600;10.040;2022-09-01T10:33:17;1.63;;;0.55;;
74042;SDS011;62384;53.600;10.040;2022-09-01T10:35:45;14.35;;;1.13;;
74042;SDS011;62384;53.600;10.040;2022-09-01T10:38:16;3.53;;;0.30;;
74042;SDS011;62384;53.600;10.040;2022-09-01T10:40:45;2.80;;;0.30;;
74042;SDS011;62384;53.600;10.040;2022-09-01T10:45:52;2.25;;;0.47;;
74042;SDS011;62384;53.600;10.040;2022-09-01T10:50:44;0.75;;;0.20;;
74042;SDS011;62384;53.600;10.040;2022-09-01T10:56:00;0.50;;;0.20;;
74042;SDS011;62384;53.600;10.040;2022-09-01T10:58:34;0.20;;;0.20;;
74042;SDS011;62384;53.600;10.040;2022-09-01T11:01:09;3.90;;;0.70;;
74042;SDS011;62384;53.600;10.040;2022-09-01T11:03:35;1.88;;;1.08;;
74042;SDS011;62384;53.600;10.040;2022-09-01T11:06:06;3.05;;;0.30;;
74042;SDS011;62384;53.600;10.040;2022-09-01T11:11:06;0.80;;;0.27;;
74042;SDS011;62384;53.600;10.040;2022-09-01T11:13:50;1.42;;;0.30;;
74042;SDS011;62384;53.600;10.040;2022-09-01T11:19:20;0.63;;;0.13;;
74042;SDS011;62384;53.600;10.040;2022-09-01T11:27:03;1.47;;;0.37;;
74042;SDS011;62384;53.600;10.040;2022-09-01T11:32:16;0.30;;;0.17;;
74042;SDS011;62384;53.600;10.040;2022-09-01T11:34:42;0.57;;;0.20;;
74042;SDS011;62384;53.600;10.040;2022-09-01T11:37:20;0.45;;;0.20;;
74042;SDS011;62384;53.600;10.040;2022-09-01T11:42:18;0.65;;;0.30;;
74042;SDS011;62384;53.600;10.040;2022-09-01T11:47:36;1.95;;;0.20;;
74042;SDS011;62384;53.600;10.040;2022-09-01T11:52:41;1.65;;;0.35;;
74042;SDS011;62384;53.600;10.040;2022-09-01T11:55:15;0.13;;;0.13;;
74042;SDS011;62384;53.600;10.040;2022-09-01T11:58:00;0.63;;;0.20;;
74042;SDS011;62384;53.600;10.040;2022-09-01T12:00:33;2.72;;;0.43;;
74042;SDS011;62384;53.600;10.040;2022-09-01T12:03:19;0.75;;;0.30;;
74042;SDS011;62384;53.600;10.040;2022-09-01T12:05:47;0.25;;;0.10;;
74042;SDS011;62384;53.600;10.040;2022-09-01T12:08:23;0.85;;;0.20;;
74042;SDS011;62384;53.600;10.040;2022-09-01T12:10:59;0.52;;;0.20;;
74042;SDS011;62384;53.600;10.040;2022-09-01T12:13:28;0.38;;;0.30;;
74042;SDS011;62384;53.600;10.040;2022-09-01T12:15:54;0.75;;;0.35;;
74042;SDS011;62384;53.600;10.040;2022-09-01T12:18:26;1.33;;;0.20;;
74042;SDS011;62384;53.600;10.040;2022-09-01T12:20:54;0.55;;;0.28;;
74042;SDS011;62384;53.600;10.040;2022-09-01T12:25:51;1.23;;;0.32;;
74042;SDS011;62384;53.600;10.040;2022-09-01T12:28:19;1.95;;;0.20;;
74042;SDS011;62384;53.600;10.040;2022-09-01T12:30:47;2.15;;;0.30;;
74042;SDS011;62384;53.600;10.040;2022-09-01T12:33:14;0.30;;;0.20;;
74042;SDS011;62384;53.600;10.040;2022-09-01T12:35:42;0.73;;;0.38;;
74042;SDS011;62384;53.600;10.040;2022-09-01T12:38:42;0.68;;;0.30;;
74042;SDS011;62384;53.600;10.040;2022-09-01T12:41:01;2.40;;;0.80;;
74042;SDS011;62384;53.600;10.040;2022-09-01T12:45:57;0.32;;;0.30;;
74042;SDS011;62384;53.600;10.040;2022-09-01T12:48:29;5.45;;;0.70;;
74042;SDS011;62384;53.600;10.040;2022-09-01T12:50:57;0.95;;;0.50;;
74042;SDS011;62384;53.600;10.040;2022-09-01T12:53:26;1.33;;;0.25;;
74042;SDS011;62384;53.600;10.040;2022-09-01T12:56:04;0.57;;;0.40;;
74042;SDS011;62384;53.600;10.040;2022-09-01T12:58:40;0.45;;;0.45;;
74042;SDS011;62384;53.600;10.040;2022-09-01T13:04:32;2.78;;;0.40;;
74042;SDS011;62384;53.600;10.040;2022-09-01T13:07:03;1.02;;;0.63;;
74042;SDS011;62384;53.600;10.040;2022-09-01T13:09:32;0.75;;;0.30;;
74042;SDS011;62384;53.600;10.040;2022-09-01T13:14:55;0.70;;;0.20;;
74042;SDS011;62384;53.600;10.040;2022-09-01T13:17:21;0.55;;;0.22;;
74042;SDS011;62384;53.600;10.040;2022-09-01T13:19:48;0.77;;;0.30;;
74042;SDS011;62384;53.600;10.040;2022-09-01T13:22:13;1.58;;;0.38;;
74042;SDS011;62384;53.600;10.040;2022-09-01T13:24:38;0.60;;;0.25;;
74042;SDS011;62384;53.600;10.040;2022-09-01T13:27:04;2.20;;;0.55;;
74042;SDS011;62384;53.600;10.040;2022-09-01T13:29:30;0.77;;;0.40;;
74042;SDS011;62384;53.600;10.040;2022-09-01T13:31:55;0.63;;;0.30;;
74042;SDS011;62384;53.600;10.040;2022-09-01T13:34:21;1.23;;;0.40;;
74042;SDS011;62384;53.600;10.040;2022-09-01T13:36:46;0.50;;;0.30;;
74042;SDS011;62384;53.600;10.040;2022-09-01T13:39:11;1.13;;;0.38;;
74042;SDS011;62384;53.600;10.040;2022-09-01T13:41:37;0.80;;;0.30;;
74042;SDS011;62384;53.600;10.040;2022-09-01T13:44:03;2.58;;;0.57;;
74042;SDS011;62384;53.600;10.040;2022-09-01T13:46:28;0.47;;;0.40;;
74042;SDS011;62384;53.600;10.040;2022-09-01T13:48:54;0.68;;;0.30;;
74042;SDS011;62384;53.600;10.040;2022-09-01T13:51:23;1.02;;;0.40;;
74042;SDS011;62384;53.600;10.040;2022-09-01T13:53:52;1.25;;;0.22;;
74042;SDS011;62384;53.600;10.040;2022-09-01T13:56:17;1.00;;;0.38;;
74042;SDS011;62384;53.600;10.040;2022-09-01T13:58:43;4.47;;;1.48;;
74042;SDS011;62384;53.600;10.040;2022-09-01T14:01:08;1.85;;;0.80;;
74042;SDS011;62384;53.600;10.040;2022-09-01T14:03:33;1.15;;;0.77;;
74042;SDS011;62384;53.600;10.040;2022-09-01T14:05:59;0.35;;;0.30;;
74042;SDS011;62384;53.600;10.040;2022-09-01T14:08:24;0.57;;;0.38;;
74042;SDS011;62384;53.600;10.040;2022-09-01T14:10:50;4.07;;;0.50;;
74042;SDS011;62384;53.600;10.040;2022-09-01T14:13:18;2.75;;;0.40;;
74042;SDS011;62384;53.600;10.040;2022-09-01T14:15:45;2.60;;;0.38;;
74042;SDS011;62384;53.600;10.040;2022-09-01T14:18:11;1.00;;;0.30;;
74042;SDS011;62384;53.600;10.040;2022-09-01T14:20:38;0.22;;;0.20;;
74042;SDS011;62384;53.600;10.040;2022-09-01T14:23:08;0.82;;;0.63;;
74042;SDS011;62384;53.600;10.040;2022-09-01T14:25:35;0.65;;;0.30;;
74042;SDS011;62384;53.600;10.040;2022-09-01T14:28:04;1.55;;;0.40;;
74042;SDS011;62384;53.600;10.040;2022-09-01T14:30:30;0.45;;;0.25;;
74042;SDS011;62384;53.600;10.040;2022-09-01T14:32:57;0.45;;;0.25;;
74042;SDS011;62384;53.600;10.040;2022-09-01T14:35:23;0.82;;;0.30;;
74042;SDS011;62384;53.600;10.040;2022-09-01T14:37:51;1.10;;;0.45;;
74042;SDS011;62384;53.600;10.040;2022-09-01T14:40:18;1.92;;;0.32;;
74042;SDS011;62384;53.600;10.040;2022-09-01T14:42:45;4.65;;;1.20;;
74042;SDS011;62384;53.600;10.040;2022-09-01T14:45:14;3.17;;;0.63;;
74042;SDS011;62384;53.600;10.040;2022-09-01T14:47:58;0.93;;;0.50;;
74042;SDS011;62384;53.600;10.040;2022-09-01T14:50:25;0.43;;;0.30;;
74042;SDS011;62384;53.600;10.040;2022-09-01T14:56:14;0.40;;;0.30;;
74042;SDS011;62384;53.600;10.040;2022-09-01T14:58:43;0.38;;;0.25;;
74042;SDS011;62384;53.600;10.040;2022-09-01T15:01:11;0.52;;;0.30;;
74042;SDS011;62384;53.600;10.040;2022-09-01T15:03:41;0.65;;;0.30;;
74042;SDS011;62384;53.600;10.040;2022-09-01T15:06:07;0.15;;;0.15;;
74042;SDS011;62384;53.600;10.040;2022-09-01T15:08:36;1.30;;;0.40;;
74042;SDS011;62384;53.600;10.040;2022-09-01T15:11:01;0.38;;;0.20;;
74042;SDS011;62384;53.600;10.040;2022-09-01T15:13:27;1.40;;;0.32;;
74042;SDS011;62384;53.600;10.040;2022-09-01T15:15:52;2.38;;;0.30;;
74042;SDS011;62384;53.600;10.040;2022-09-01T15:18:18;0.28;;;0.28;;
74042;SDS011;62384;53.600;10.040;2022-09-01T15:20:44;0.40;;;0.40;;
74042;SDS011;62384;53.600;10.040;2022-09-01T15:23:09;0.50;;;0.50;;
74042;SDS011;62384;53.600;10.040;2022-09-01T15:25:39;2.45;;;0.43;;
74042;SDS011;62384;53.600;10.040;2022-09-01T15:28:05;0.70;;;0.30;;
74042;SDS011;62384;53.600;10.040;2022-09-01T15:30:31;0.85;;;0.40;;
74042;SDS011;62384;53.600;10.040;2022-09-01T15:32:57;0.90;;;0.30;;
74042;SDS011;62384;53.600;10.040;2022-09-01T15:35:23;1.67;;;0.60;;
74042;SDS011;62384;53.600;10.040;2022-09-01T15:37:49;0.77;;;0.30;;
74042;SDS011;62384;53.600;10.040;2022-09-01T15:40:16;0.30;;;0.30;;
74042;SDS011;62384;53.600;10.040;2022-09-01T15:42:43;2.92;;;0.40;;
74042;SDS011;62384;53.600;10.040;2022-09-01T15:45:11;0.60;;;0.38;;
74042;SDS011;62384;53.600;10.040;2022-09-01T15:47:39;2.97;;;0.35;;
74042;SDS011;62384;53.600;10.040;2022-09-01T15:50:05;0.75;;;0.20;;
74042;SDS011;62384;53.600;10.040;2022-09-01T15:52:33;3.13;;;0.47;;
74042;SDS011;62384;53.600;10.040;2022-09-01T15:54:59;0.55;;;0.20;;
74042;SDS011;62384;53.600;10.040;2022-09-01T15:57:24;0.65;;;0.43;;
74042;SDS011;62384;53.600;10.040;2022-09-01T15:59:50;2.53;;;0.30;;
74042;SDS011;62384;53.600;10.040;2022-09-01T16:02:15;0.25;;;0.25;;
74042;SDS011;62384;53.600;10.040;2022-09-01T16:04:44;1.27;;;0.40;;
74042;SDS011;62384;53.600;10.040;2022-09-01T16:07:10;0.90;;;0.40;;
74042;SDS011;62384;53.600;10.040;2022-09-01T16:09:35;1.90;;;0.40;;
74042;SDS011;62384;53.600;10.040;2022-09-01T16:12:03;0.85;;;0.30;;